Troviken — C6ZT9 — position and weather

sailwx.info

Track history (hours):
 
Tides and Currents Weather Stations Pressure Air Temp Water Temp Dewpoint Dewpoint Depression Visibility Wind Speed Wind Dir Waves Ship Positions

Troviken

Last reported at 2015-Jun-27 06:30 UTC. Time now 2015-Jun-30 14:31 UTC.
Position N 35°39' W 030°34'.

Length 250 m; draft 10.1 m.

Type: Ship (hazmat cat A). MMSI: 311066200.

Date/timePositionNaut miles runAvg speedWind from/ knotsBaromVisibWave heightAir tempDewpointWater temp
2015-Jun-27 06:30N 35°39' W 030°34'1212.3
2015-Jun-27 05:34N 35°40' W 030°20'1312.5
2015-Jun-27 04:29N 35°41' W 030°03'1312.1
2015-Jun-27 03:23N 35°41' W 029°47'1011.9
2015-Jun-27 02:31N 35°40' W 029°34'1111.9
2015-Jun-27 01:33N 35°40' W 029°20'1212.4
2015-Jun-27 00:34N 35°39' W 029°05'1312.4
2015-Jun-26 23:31N 35°39' W 028°49'1812.4
2015-Jun-26 22:06N 35°38' W 028°28'912.1
2015-Jun-26 21:19N 35°37' W 028°16'912.3
2015-Jun-26 20:33N 35°37' W 028°04'1412.3
2015-Jun-26 19:24N 35°36' W 027°47'1112.4
2015-Jun-26 18:33N 35°36' W 027°34'3610.8
2015-Jun-26 15:11N 35°34' W 026°49'812.1
2015-Jun-26 14:33N 35°34' W 026°40'1212.3
2015-Jun-26 13:33N 35°33' W 026°25'1212.3
2015-Jun-26 12:33N 35°33' W 026°10'1211.8
2015-Jun-26 11:33N 35°32' W 025°55'1411.9
2015-Jun-26 10:22N 35°32' W 025°38'1112.0
2015-Jun-26 09:29N 35°31' W 025°25'1112.0
2015-Jun-26 08:33N 35°31' W 025°11'1212.2
2015-Jun-26 07:32N 35°30' W 024°56'1312.5
2015-Jun-26 06:32N 35°30' W 024°40'1312.4
2015-Jun-26 05:29N 35°29' W 024°25'1112.1
2015-Jun-26 04:33N 35°29' W 024°11'1212.2
2015-Jun-26 03:33N 35°28' W 023°56'1312.2
2015-Jun-26 02:27N 35°28' W 023°39'1112.1
2015-Jun-26 01:33N 35°27' W 023°26'1212.3
2015-Jun-26 00:33N 35°27' W 023°11'1312.7
2015-Jun-25 23:33N 35°26' W 022°55'1412.7
2015-Jun-25 22:25N 35°25' W 022°38'1612.5
2015-Jun-25 21:09N 35°25' W 022°18'1012.6
2015-Jun-25 20:20N 35°25' W 022°06'  
2015-Jun-22 18:12N 36°10' W 003°42'811.2
2015-Jun-22 17:31N 36°10' W 003°32'1111.5
2015-Jun-22 16:34N 36°11' W 003°19'1212.2
2015-Jun-22 15:33N 36°12' W 003°03'1212.3
2015-Jun-22 14:33N 36°14' W 002°48'1312.4
2015-Jun-22 13:33N 36°15' W 002°33'1212.4
2015-Jun-22 12:33N 36°16' W 002°18'1312.7
2015-Jun-22 11:33N 36°17' W 002°02'1212.5
2015-Jun-22 10:34N 36°20' W 001°47'2912.8
2015-Jun-22 08:19N 36°27' W 001°13'1013.3
2015-Jun-22 07:33N 36°29' W 001°00'1313.1
2015-Jun-22 06:33N 36°33' W 000°45'1312.9
2015-Jun-22 05:33N 36°36' W 000°29'1312.6
2015-Jun-22 04:33N 36°40' W 000°14'1312.8
2015-Jun-22 03:33N 36°43' E 000°01'1312.5
2015-Jun-22 02:33N 36°46' E 000°16'1312.8
2015-Jun-22 01:33N 36°49' E 000°32'1412.4
2015-Jun-22 00:25N 36°53' E 000°49'1112.4
2015-Jun-21 23:33N 36°56' E 001°02'1312.8
2015-Jun-21 22:33N 36°59' E 001°17'1312.9
2015-Jun-21 21:33N 37°02' E 001°33'1312.6
2015-Jun-21 20:33N 37°06' E 001°48'1312.8
2015-Jun-21 19:32N 37°09' E 002°04'1312.9
2015-Jun-21 18:33N 37°13' E 002°19'1313.0
2015-Jun-21 17:33N 37°16' E 002°35'1512.8
2015-Jun-21 16:24N 37°20' E 002°53'1112.4
2015-Jun-21 15:33N 37°21' E 003°06'1212.3
2015-Jun-21 14:33N 37°21' E 003°22'1211.8
2015-Jun-21 13:33N 37°20' E 003°36'1212.1
2015-Jun-21 12:33N 37°21' E 003°52'1212.2
2015-Jun-21 11:33N 37°21' E 004°07'1312.3
2015-Jun-21 10:32N 37°21' E 004°23'1212.5
2015-Jun-21 09:34N 37°21' E 004°38'3712.2
2015-Jun-21 06:32N 37°21' E 005°24'1211.9
2015-Jun-21 05:32N 37°20' E 005°39'2611.9
2015-Jun-21 03:20N 37°16' E 006°12'  
Track history (hours):
 
Tides and Currents Weather Stations Pressure Air Temp Water Temp Dewpoint Dewpoint Depression Visibility Wind Speed Wind Dir Waves Ship Positions

Troviken

Last reported at 2015-Jun-27 06:30 UTC. Time now 2015-Jun-30 14:31 UTC.
Position N 35°39' W 030°34'.

Length 250 m; draft 10.1 m.

Type: Ship (hazmat cat A). MMSI: 311066200.

Date/timePositionNaut miles runAvg speedWind from/ knotsBaromVisibWave heightAir tempDewpointWater temp
2015-Jun-27 06:30N 35°39' W 030°34'1212.3
2015-Jun-27 05:34N 35°40' W 030°20'1312.5
2015-Jun-27 04:29N 35°41' W 030°03'1312.1
2015-Jun-27 03:23N 35°41' W 029°47'1011.9
2015-Jun-27 02:31N 35°40' W 029°34'1111.9
2015-Jun-27 01:33N 35°40' W 029°20'1212.4
2015-Jun-27 00:34N 35°39' W 029°05'1312.4
2015-Jun-26 23:31N 35°39' W 028°49'1812.4
2015-Jun-26 22:06N 35°38' W 028°28'912.1
2015-Jun-26 21:19N 35°37' W 028°16'912.3
2015-Jun-26 20:33N 35°37' W 028°04'1412.3
2015-Jun-26 19:24N 35°36' W 027°47'1112.4
2015-Jun-26 18:33N 35°36' W 027°34'3610.8
2015-Jun-26 15:11N 35°34' W 026°49'812.1
2015-Jun-26 14:33N 35°34' W 026°40'1212.3
2015-Jun-26 13:33N 35°33' W 026°25'1212.3
2015-Jun-26 12:33N 35°33' W 026°10'1211.8
2015-Jun-26 11:33N 35°32' W 025°55'1411.9
2015-Jun-26 10:22N 35°32' W 025°38'1112.0
2015-Jun-26 09:29N 35°31' W 025°25'1112.0
2015-Jun-26 08:33N 35°31' W 025°11'1212.2
2015-Jun-26 07:32N 35°30' W 024°56'1312.5
2015-Jun-26 06:32N 35°30' W 024°40'1312.4
2015-Jun-26 05:29N 35°29' W 024°25'1112.1
2015-Jun-26 04:33N 35°29' W 024°11'1212.2
2015-Jun-26 03:33N 35°28' W 023°56'1312.2
2015-Jun-26 02:27N 35°28' W 023°39'1112.1
2015-Jun-26 01:33N 35°27' W 023°26'1212.3
2015-Jun-26 00:33N 35°27' W 023°11'1312.7
2015-Jun-25 23:33N 35°26' W 022°55'1412.7
2015-Jun-25 22:25N 35°25' W 022°38'1612.5
2015-Jun-25 21:09N 35°25' W 022°18'1012.6
2015-Jun-25 20:20N 35°25' W 022°06'  
2015-Jun-22 18:12N 36°10' W 003°42'811.2
2015-Jun-22 17:31N 36°10' W 003°32'1111.5
2015-Jun-22 16:34N 36°11' W 003°19'1212.2
2015-Jun-22 15:33N 36°12' W 003°03'1212.3
2015-Jun-22 14:33N 36°14' W 002°48'1312.4
2015-Jun-22 13:33N 36°15' W 002°33'1212.4
2015-Jun-22 12:33N 36°16' W 002°18'1312.7
2015-Jun-22 11:33N 36°17' W 002°02'1212.5
2015-Jun-22 10:34N 36°20' W 001°47'2912.8
2015-Jun-22 08:19N 36°27' W 001°13'1013.3
2015-Jun-22 07:33N 36°29' W 001°00'1313.1
2015-Jun-22 06:33N 36°33' W 000°45'1312.9
2015-Jun-22 05:33N 36°36' W 000°29'1312.6
2015-Jun-22 04:33N 36°40' W 000°14'1312.8
2015-Jun-22 03:33N 36°43' E 000°01'1312.5
2015-Jun-22 02:33N 36°46' E 000°16'1312.8
2015-Jun-22 01:33N 36°49' E 000°32'1412.4
2015-Jun-22 00:25N 36°53' E 000°49'1112.4
2015-Jun-21 23:33N 36°56' E 001°02'1312.8
2015-Jun-21 22:33N 36°59' E 001°17'1312.9
2015-Jun-21 21:33N 37°02' E 001°33'1312.6
2015-Jun-21 20:33N 37°06' E 001°48'1312.8
2015-Jun-21 19:32N 37°09' E 002°04'1312.9
2015-Jun-21 18:33N 37°13' E 002°19'1313.0
2015-Jun-21 17:33N 37°16' E 002°35'1512.8
2015-Jun-21 16:24N 37°20' E 002°53'1112.4
2015-Jun-21 15:33N 37°21' E 003°06'1212.3
2015-Jun-21 14:33N 37°21' E 003°22'1211.8
2015-Jun-21 13:33N 37°20' E 003°36'1212.1
2015-Jun-21 12:33N 37°21' E 003°52'1212.2
2015-Jun-21 11:33N 37°21' E 004°07'1312.3
2015-Jun-21 10:32N 37°21' E 004°23'1212.5
2015-Jun-21 09:34N 37°21' E 004°38'3712.2
2015-Jun-21 06:32N 37°21' E 005°24'1211.9
2015-Jun-21 05:32N 37°20' E 005°39'2611.9
2015-Jun-21 03:20N 37°16' E 006°12'  

Dump ship's entire track history